﻿ProjectID	SampleID	SampleType	TaxonomyID	UniqCodeType	UniqCode	SampleName	ScientificName	CommonName	CollectionYear	CollectionMonth	CollectionDay	SamplingTimeStartEnd	SamplingTimeAMPM	SamplingDuration	WeatherStartEnd	CollectionRegion	CollectionCountry	CollectionArea	CollectionLatitudeFrom	CollectionLatitudeTo	CollectionLongitudeFrom	CollectionLongitudeTo	Sex	TissueOrgan	TissueLipid	TissueMoist	Weight	WeightUnit	Length	LengthUnit	LengthType	GrowthStage	Age	Disease	TemperatureStartEnd	WaterTemperatureStartEnd	pH	DO	EC	EC_temp	Salinity	SS	WaterDepthM	TransparencyM	WaterColor	SedimentTemperatureStartEnd	SedimentDepthM	SedimentAppearance	SedimentColor	SedimentSurfaceColor	SedimentOdor	SedimentImpurities	SedimentMoistureOnSiteAnalysis	IgnitionLossOnSiteAnalysis	SoilDepthM	FlowRate	MeanPM10	MeanTotalSuspendedParticles	HumidityStartEnd	WindDirectionStartEnd	WindSpeedMSStartEnd	AmountOfCollectedAirStartEnd	Remarks	RegisterDate	UpdateDate
PRA000043	SAA002409	ST009	73031			"Koh Kchorng"	"Perna viridis"	"Asian green mussel"	2004							Asia	Cambodia	"Koh Kchorng"	10.559482	11.93609	102.787446	103.74339		"Whole soft tissue"	1.8				80	mm	"Shell length"																																"n=45 Pooled; Rural area"	2017/9/29	2017/9/29
PRA000043	SAA002410	ST009	73031			"Preab Island"	"Perna viridis"	"Asian green mussel"	2004							Asia	Cambodia	"Preab Island"	10.559482	11.93609	102.787446	103.74339		"Whole soft tissue"	1.2				92	mm	"Shell length"																																"n=34 Pooled; Harbor"	2017/9/29	2017/9/29
PRA000043	SAA002411	ST009	73031			"Beihai "	"Perna viridis"	"Asian green mussel"	2004							Asia	China	"Beihai "	21.403842	21.738972	108.855005	109.7707		"Whole soft tissue"	1.1				"60 - 90"	mm	"Shell length"																																"n=156 Pooled; Small city"	2017/9/29	2017/9/29
PRA000043	SAA002412	ST009	6550			"Chong Ming Dao"	"Mytilus edulis"	"Blue mussel"	2004							Asia	China	"Chong Ming Dao"	31.441648	31.863894	121.171316	121.990437		"Whole soft tissue"	0.39				"30 - 75"	mm	"Shell length"																																"n=79 Pooled; Industrial, commercial area"	2017/9/29	2017/9/29
PRA000043	SAA002413	ST009	6550			Dalian	"Mytilus edulis"	"Blue mussel"	2004							Asia	China	Dalian	38.752184	40.181599	121.158975	123.492628		"Whole soft tissue"	0.49				"30 - 75"	mm	"Shell length"																																"n=69 Pooled; Aquaculture"	2017/9/29	2017/9/29
PRA000043	SAA002414	ST009	6550			"Jiao Zhou Wan"	"Mytilus edulis"	"Blue mussel"	2004							Asia	China	"Jiao Zhou Wan"	36.129984	36.181752	120.102721	120.144207		"Whole soft tissue"	0.63				"30 - 75"	mm	"Shell length"																																"n=72 Pooled; Industrial area"	2017/9/29	2017/9/29
PRA000043	SAA002415	ST009	6550			"Lian Yun  Gang"	"Mytilus edulis"	"Blue mussel"	2004							Asia	China	"Lian Yun  Gang"	34.386956	35.105406	119.210949	119.794567		"Whole soft tissue"	1.2				"40 - 75"	mm	"Shell length"																																"n=50 Pooled; Aquaculture"	2017/9/29	2017/9/29
PRA000043	SAA002416	ST009	73031			Qingzhou	"Perna viridis"	"Asian green mussel"	2004							Asia	China	Qingzhou	36.416263	36.954784	118.182408	118.77155		"Whole soft tissue"	0.87				"60 - 90"	mm	"Shell length"																																"n=178 Pooled; Small Town"	2017/9/29	2017/9/29
PRA000043	SAA002417	ST009	73031			"Cheung Chau"	"Perna viridis"	"Asian green mussel"	2004							Asia	China	"Hong Kong"	22.196039	22.223074	114.017302	114.040874		"Whole soft tissue"	1.3																																						"Pooled; Residential area"	2017/9/29	2017/9/29
PRA000043	SAA002418	ST009	73031			"Kat O"	"Perna viridis"	"Asian green mussel"	2004							Asia	China	"Hong Kong"	22.532001	22.555097	114.286212	114.316531		"Whole soft tissue"	1																																						"Pooled; Aquaculture area"	2017/9/29	2017/9/29
PRA000043	SAA002419	ST009	73031			"Ma Liu Shui"	"Perna viridis"	"Asian green mussel"	2004							Asia	China	"Hong Kong"	22.41	22.428766	114.194339	114.214945		"Whole soft tissue"	1.4																																						"Pooled; Residential area"	2017/9/29	2017/9/29
PRA000043	SAA002420	ST009	73031			"Sai Wan Ho"	"Perna viridis"	"Asian green mussel"	2004							Asia	China	"Hong Kong"	22.279392	22.284328	114.217802	114.223317		"Whole soft tissue"	1.3																																						"Pooled; Residential area"	2017/9/29	2017/9/29
PRA000043	SAA002421	ST009	73031			"Tsim sha Tsui"	"Perna viridis"	"Asian green mussel"	2004							Asia	China	"Hong Kong"	22.294251	22.300955	114.164788	114.176306		"Whole soft tissue"	1.2																																						"Pooled; Commercial area"	2017/9/29	2017/9/29
PRA000043	SAA002422	ST009	73031			Kakinada	"Perna viridis"	"Asian green mussel"	2004							Asia	India	Kakinada	16.916843	17.036695	82.203802	82.283624		"Whole soft tissue"	2.5				"88 - 129"	mm	"Shell length"																																"n=18 Pooled; Aqua-and agriculture, harbor"	2017/9/29	2017/9/29
PRA000043	SAA002423	ST009	73031			Kasimedu	"Perna viridis"	"Asian green mussel"	2004							Asia	India	Kasimedu	13.123868	13.126898	80.294433	80.297587		"Whole soft tissue"	2.3				"87 - 105"	mm	"Shell length"																																"n=20 Pooled; Fishing harbor"	2017/9/29	2017/9/29
PRA000043	SAA002424	ST009	73031			Pondicherry	"Perna viridis"	"Asian green mussel"	2004							Asia	India	Pondicherry	11.899741	11.972989	79.78589	79.840221		"Whole soft tissue"	1.9				"96 - 124"	mm	"Shell length"																																"n=35 Pooled; Industrial, small harbor"	2017/9/29	2017/9/29
PRA000043	SAA002425	ST009	73031			Cilincing_A	"Perna viridis"	"Asian green mussel"	2003							Asia	Indonesia	"Cilincing, Jakarta Bay"	-6.091834	-6.126882	106.908371	106.970887		"Whole soft tissue"	1.6				"52 - 73"	mm	"Shell length"																																"n=22 Pooled; Urban, industrial, polluted"	2017/9/29	2017/9/29
PRA000043	SAA002426	ST009	73031			Cilincing_B	"Perna viridis"	"Asian green mussel"	2003							Asia	Indonesia	"Cilincing, Jakarta Bay"	-6.091834	-6.126882	106.908371	106.970887		"Whole soft tissue"	1.9				"70 - 88"	mm	"Shell length"																																"n=20 Pooled; Urban, industrial, polluted"	2017/9/29	2017/9/29
PRA000043	SAA002427	ST009	73031			"Muara Angek_A"	"Perna viridis"	"Asian green mussel"	2003							Asia	Indonesia	"Muara Angek, Jakarta Bay"	-6.103269	-6.105417	106.774504	106.777027		"Whole soft tissue"	1.1				"58 - 86"	mm	"Shell length"																																"n=31 Pooled; Urban, fishing port, polluted"	2017/9/29	2017/9/29
PRA000043	SAA002428	ST009	6550	es-BANK	EF06329	Akita	"Mytilus edulis"	"Blue mussel"	2005							Asia	Japan	Akita	40.15555556	40.20944444	139.9233333	139.9822222		"Whole soft tissue"	0.59				"18 - 74"	mm	"Shell length"																																"n=9 Pooled; Industrial area"	2017/9/29	2017/9/29
PRA000043	SAA002429	ST009	6550			"Ehime A"	"Mytilus edulis"	"Blue mussel"	2008							Asia	Japan	"Ehime "	32.88472222	34.30166667	132.0125	133.6930556		"Whole soft tissue"	0.41				"29 - 63"	mm	"Shell length"																																"n=149 Pooled; Port, industrial area"	2017/9/29	2017/9/29
PRA000043	SAA002430	ST009	6550			"Ehime B"	"Mytilus edulis"	"Blue mussel"	2008							Asia	Japan	"Ehime "	32.88472222	34.30166667	132.0125	133.6930556		"Whole soft tissue"	0.24				"43 - 83"	mm	"Shell length"																																"n=45 Pooled; Port"	2017/9/29	2017/9/29
PRA000043	SAA002431	ST009	6550			"Ehime C"	"Mytilus edulis"	"Blue mussel"	2008							Asia	Japan	"Ehime "	32.88472222	34.30166667	132.0125	133.6930556		"Whole soft tissue"	1.1				"30 - 53"	mm	"Shell length"																																"n=48 Pooled; Port, industrial area"	2017/9/29	2017/9/29
PRA000043	SAA002432	ST009	6550			"Ehime D"	"Mytilus edulis"	"Blue mussel"	2008							Asia	Japan	"Ehime "	32.88472222	34.30166667	132.0125	133.6930556		"Whole soft tissue"	1.4				"24 - 63"	mm	"Shell length"																																"n=32 Pooled; Industrial area"	2017/9/29	2017/9/29
PRA000043	SAA002433	ST009	6550			"Ehime E"	"Mytilus edulis"	"Blue mussel"	2008							Asia	Japan	"Ehime "	32.88472222	34.30166667	132.0125	133.6930556		"Whole soft tissue"	0.67				"35 - 75"	mm	"Shell length"																																"n=43 Pooled; Industrial area"	2017/9/29	2017/9/29
PRA000043	SAA002434	ST009	73031			"Ehime F"	"Perna viridis"	"Asian green mussel"	2008							Asia	Japan	"Ehime "	32.88472222	34.30166667	132.0125	133.6930556		"Whole soft tissue"	1.5				"52 - 117"	mm	"Shell length"																																"n=50 Pooled; Fishing harbor"	2017/9/29	2017/9/29
PRA000043	SAA002435	ST009	6550	es-BANK	EF04157	Hokkaido	"Mytilus edulis"	"Blue mussel"	2003	6	13					Asia	Japan	Hokkaido	43.72472222	43.8225	141.1436111	141.3319444		"Whole soft tissue"	0.74																																						"Pooled; Small town"	2017/9/29	2017/9/29
PRA000043	SAA002436	ST009	6550	es-BANK	EF04158	Fukui	"Mytilus edulis"	"Blue mussel"	2003	7	8					Asia	Japan	Fukui	35.65083333	35.80722222	135.9586111	136.1111111		"Whole soft tissue"	1.1																																						"Pooled; Industrial area"	2017/9/29	2017/9/29
PRA000043	SAA002437	ST009	6550	es-BANK	EF06325	Iwate	"Mytilus edulis"	"Blue mussel"	2005	11	9					Asia	Japan	Iwate	39.62277778	39.64194444	141.9725	141.9886111		"Whole soft tissue"	0.98				"25 - 50"	mm	"Shell length"																																"n=17 Pooled; Port"	2017/9/29	2017/9/29
PRA000043	SAA002438	ST009	6550			Kumamoto	"Mytilus edulis"	"Blue mussel"	2008							Asia	Japan	Kumamoto	32.09472222	33.19527778	129.9402778	131.3294444		"Whole soft tissue"	1.2				"30 - 79"	mm	"Shell length"																																"n=37 Pooled; Harbor"	2017/9/29	2017/9/29
PRA000043	SAA002439	ST009	6550	es-BANK	EF04155	Mie	"Mytilus edulis"	"Blue mussel"	2003							Asia	Japan	Mie	33.6975	34.78638889	136.2413889	136.925		"Whole soft tissue"	0.53																																						Pooled	2017/9/29	2017/9/29
PRA000043	SAA002440	ST009	6550			Miyagi	"Mytilus edulis"	"Blue mussel"	2004							Asia	Japan	Miyagi	37.77333333	39.00277778	140.275	141.6752778		"Whole soft tissue"	1.5																																						"Pooled; Fishing harbor"	2017/9/29	2017/9/29
PRA000043	SAA002441	ST009	6550			"Osaka A"	"Mytilus edulis"	"Blue mussel"	2008							Asia	Japan	Osaka	34.27194444	35.05138889	135.0919444	135.7466667		"Whole soft tissue"	0.51				"37 - 65"	mm	"Shell length"																																"n=43 Pooled; Port, indusrial area"	2017/9/29	2017/9/29
PRA000043	SAA002442	ST009	6550			"Osaka B"	"Mytilus edulis"	"Blue mussel"	2008							Asia	Japan	Osaka	34.27194444	35.05138889	135.0919444	135.7466667		"Whole soft tissue"	0.41				"54 - 78"	mm	"Shell length"																																"n=25 Pooled; Port, indusrial area"	2017/9/29	2017/9/29
PRA000043	SAA002443	ST009	6550			"Osaka C"	"Mytilus edulis"	"Blue mussel"	2008							Asia	Japan	Osaka	34.27194444	35.05138889	135.0919444	135.7466667		"Whole soft tissue"	0.75				"18 - 23"	mm	"Shell length"																																"n=95 Pooled; Port, indusrial area"	2017/9/29	2017/9/29
PRA000043	SAA002444	ST009	6550			"Osaka D"	"Mytilus edulis"	"Blue mussel"	2008							Asia	Japan	Osaka	34.27194444	35.05138889	135.0919444	135.7466667		"Whole soft tissue"	0.51				"50 - 89"	mm	"Shell length"																																"n=38 Pooled; Industrial area"	2017/9/29	2017/9/29
PRA000043	SAA002445	ST009	6550			"Syodo island"	"Mytilus edulis"	"Blue mussel"	2008							Asia	Japan	"Syodo island"	34.05027778	34.56416667	134.0358333	134.3663889		"Whole soft tissue"	0.64				"55 - 84"	mm	"Shell length"																																"n=27 Pooled; Port"	2017/9/29	2017/9/29
PRA000043	SAA002446	ST009	6550	es-BANK	EF09157	Tokyo	"Mytilus edulis"	"Blue mussel"	2007	9	8					Asia	Japan	Tokyo	35.535142	35.578546	139.770194	139.825338		"Whole soft tissue"	0.96																																						"Pooled; Small town"	2017/9/29	2017/9/29
PRA000043	SAA002447	ST009	6550			"Busan Bay_M-1"	"Mytilus edulis"	"Blue mussel"	2005							Asia	Korea	"Busan Bay"	35.031915	35.129124	128.946326	129.126502		"Whole soft tissue"	2.3				"40 - 55"	mm	"Shell length"																																"n=10 Pooled; Industrial complex"	2017/9/29	2017/9/29
PRA000043	SAA002448	ST009	6550			"Chunsu Bay_Hongseong"	"Mytilus edulis"	"Blue mussel"	2005							Asia	Korea	"Chunsu Bay, Hongseong"	36.520935	36.591548	126.456191	126.49465		"Whole soft tissue"	0.95				"46 - 64"	mm	"Shell length"																																"n=46 Pooled; Influx of migratory birds"	2017/9/29	2017/9/29
PRA000043	SAA002449	ST009	6550			"Gamak Bay_Yeosu"	"Mytilus edulis"	"Blue mussel"	2005							Asia	Korea	"Gamak Bay, Yeosu"	34.404401	34.888577	127.511499	127.802703		"Whole soft tissue"	1.3				"33 - 57"	mm	"Shell length"																																"n=10 Pooled; Coastal protected area"	2017/9/29	2017/9/29
PRA000043	SAA002450	ST009	6550			"Ganggu_Yandok M-3"	"Mytilus edulis"	"Blue mussel"	2005							Asia	Korea	"Ganggu, Yandok"	36.355654	36.363704	129.380696	129.393991		"Whole soft tissue"	1.7				"35 - 46"	mm	"Shell length"																																"n=10 Pooled; Less industrial activity"	2017/9/29	2017/9/29
PRA000043	SAA002451	ST009	6550			"Garorim Bay_Dangjin"	"Mytilus edulis"	"Blue mussel"	2005							Asia	Korea	"Garorim Bay, Dangjin"	36.795087	37.060206	126.413168	126.856741		"Whole soft tissue"	1.2				"50 - 87"	mm	"Shell length"																																"n=17 Pooled; Farming area"	2017/9/29	2017/9/29
PRA000043	SAA002452	ST009	6550			Guryongpo	"Mytilus edulis"	"Blue mussel"	2005							Asia	Korea	Guryongpo	35.982171	35.99088	129.552113	129.567192		"Whole soft tissue"	1.6				"45 - 58"	mm	"Shell length"																																"n=58 Pooled; Less industrial activity"	2017/9/29	2017/9/29
PRA000043	SAA002453	ST009	6550			"Gwangyang Bay"	"Mytilus edulis"	"Blue mussel"	2005							Asia	Korea	"Gwangyang Bay"	34.901103	34.965817	127.578645	127.76671		"Whole soft tissue"	0.86				"46 - 66"	mm	"Shell length"																																"n=44 Pooled; Industrial complex"	2017/9/29	2017/9/29
PRA000043	SAA002454	ST009	6550			"Haengam Bay_Jinhae"	"Mytilus edulis"	"Blue mussel"	2005							Asia	Korea	"Haengam Bay, Jinhae"	35.096831	35.12546	128.67755	128.702301		"Whole soft tissue"	1.2				"41 - 58"	mm	"Shell length"																																"n=39 Pooled; Industrial area"	2017/9/29	2017/9/29
PRA000043	SAA002455	ST009	6550			"Kohyonsong Bay_Geoje M-3"	"Mytilus edulis"	"Blue mussel"	2005							Asia	Korea	"Kohyonsong Bay, Geoje"	34.825577	35.033289	128.463717	128.750763		"Whole soft tissue"	1.4				"53 - 62"	mm	"Shell length"																																"n=37 Pooled; Shipyard, farming areas"	2017/9/29	2017/9/29
PRA000043	SAA002456	ST009	6550			"Kori_Ulju County A"	"Mytilus edulis"	"Blue mussel"	2005							Asia	Korea	"Kori, Ulju County"	35.318071	35.331722	129.28175	129.312848		"Whole soft tissue"	2.1				"45 - 65"	mm	"Shell length"																																"n=44 Pooled; Nuclear power plant"	2017/9/29	2017/9/29
PRA000043	SAA002457	ST009	6550			"Masan Bay_M-2"	"Mytilus edulis"	"Blue mussel"	2005							Asia	Korea	"Masan Bay"	35.137817	35.211717	128.587008	128.607937		"Whole soft tissue"	0.75				"38 - 62"	mm	"Shell length"																																"n=32 Pooled; Industrial complex"	2017/9/29	2017/9/29
PRA000043	SAA002458	ST009	6550			"Okpo Bay_M-2"	"Mytilus edulis"	"Blue mussel"	2005							Asia	Korea	"Okpo Bay"	34.883997	34.904103	128.696106	128.720357		"Whole soft tissue"	1.2				"51 - 81"	mm	"Shell length"																																"n=22 Pooled; Repairing shipyard"	2017/9/29	2017/9/29
PRA000043	SAA002459	ST009	6550			"Onsan Bay_M-1"	"Mytilus edulis"	"Blue mussel"	2005							Asia	Korea	"Onsan Bay"	35.438997	35.469979	129.341166	129.370395		"Whole soft tissue"	0.81				"55 - 71"	mm	"Shell length"																																"n=49 Pooled; Industrial complex"	2017/9/29	2017/9/29
PRA000043	SAA002460	ST009	6550			"Onsan Bay_M-2"	"Mytilus edulis"	"Blue mussel"	2005							Asia	Korea	"Onsan Bay"	35.438997	35.469979	129.341166	129.370395		"Whole soft tissue"	1.8				"50 - 70"	mm	"Shell length"																																"n=43 Pooled; Industrial complex"	2017/9/29	2017/9/29
PRA000043	SAA002461	ST009	6550			"Sacheon Bay_Sacheon"	"Mytilus edulis"	"Blue mussel"	2005							Asia	Korea	"Sacheon Bay, Sacheon"	35.023727	35.079191	128.019806	128.059989		"Whole soft tissue"	0.72				"37 - 55"	mm	"Shell length"																																"n=75 Pooled; Thermoelectric power plant"	2017/9/29	2017/9/29
PRA000043	SAA002462	ST009	6550			"Shihwa Lake_Incheon"	"Mytilus edulis"	"Blue mussel"	2005							Asia	Korea	"Shihwa Lake, Incheon"	37.253175	37.329087	126.578865	126.744541		"Whole soft tissue"	1.3				"35 - 67"	mm	"Shell length"																																"n=10 Pooled; Industrial area"	2017/9/29	2017/9/29
PRA000043	SAA002463	ST009	6550			"Uljin A"	"Mytilus edulis"	"Blue mussel"	2005							Asia	Korea	Uljin	36.648131	37.145258	129.36385	129.477521		"Whole soft tissue"	0.78				"45 - 70"	mm	"Shell length"																																"n=36 Pooled; Less industrial activity"	2017/9/29	2017/9/29
PRA000043	SAA002464	ST009	6550			"Ulsan Bay_M-6"	"Mytilus edulis"	"Blue mussel"	2005							Asia	Korea	"Ulsan Bay"	35.471723	35.543636	129.356992	129.412547		"Whole soft tissue"	2.1				"45 - 65"	mm	"Shell length"																																"n=42 Pooled; Industrial complex"	2017/9/29	2017/9/29
PRA000043	SAA002465	ST009	6550			"Ulsan Bay_M-8"	"Mytilus edulis"	"Blue mussel"	2005							Asia	Korea	"Ulsan Bay"	35.471723	35.543636	129.356992	129.412547		"Whole soft tissue"	1				"54 - 77"	mm	"Shell length"																																"n=42 Pooled; Industrial complex"	2017/9/29	2017/9/29
PRA000043	SAA002466	ST009	6550			"Welseong B"	"Mytilus edulis"	"Blue mussel"	2005							Asia	Korea	Welseong	35.71249	35.744088	129.473832	129.480208		"Whole soft tissue"	1.8				"53 - 68"	mm	"Shell length"																																"n=49 Pooled; Nuclear power plant"	2017/9/29	2017/9/29
PRA000043	SAA002467	ST009	6550			Wonmunnpo_M-1	"Mytilus edulis"	"Blue mussel"	2005							Asia	Korea	Wonmunnpo	34.762668	34.970661	128.310296	128.477854		"Whole soft tissue"	1.9				"46 - 82"	mm	"Shell length"																																"n=32 Pooled; Farming areas"	2017/9/29	2017/9/29
PRA000043	SAA002468	ST009	6550			"Yeongil Bay_Pohang M-2"	"Mytilus edulis"	"Blue mussel"	2005							Asia	Korea	"Yeongil Bay, Pohang"	35.991998	36.105747	129.383822	129.551267		"Whole soft tissue"	0.93				"42 - 52"	mm	"Shell length"																																"n=50 Pooled; Industrial complex"	2017/9/29	2017/9/29
PRA000043	SAA002469	ST009	73031			"Pantai Lido"	"Perna viridis"	"Asian green mussel"	2004							Asia	Malaysia	"Pantai Lido"	1.457054		103.74703			"Whole soft tissue"	0.92																																						"Pooled; Port, indusrial area"	2017/9/29	2017/9/29
PRA000043	SAA002470	ST009	73031			"Pasir Puteh"	"Perna viridis"	"Asian green mussel"	2004							Asia	Malaysia	"Pasir Puteh"	5.890881	5.917307	102.469272	102.487977		"Whole soft tissue"	1.3																																						"Pooled; Port, indusrial area"	2017/9/29	2017/9/29
PRA000043	SAA002471	ST009	73031			"Port Dicknon"	"Perna viridis"	"Asian green mussel"	2004							Asia	Malaysia	"Port Dicknon"	2.440408	2.603669	101.743455	101.856744		"Whole soft tissue"	0.83																																						"Pooled;Old port and refinery"	2017/9/29	2017/9/29
PRA000043	SAA002472	ST009	73031			"Sebatu "	"Perna viridis"	"Asian green mussel"	2004							Asia	Malaysia	"Sebatu "	2.109479	2.113466	102.461977	102.464577		"Whole soft tissue"	1.6																																						"Pooled; Rural area"	2017/9/29	2017/9/29
PRA000043	SAA002473	ST009	73031			"Bacoor cavite"	"Perna viridis"	"Asian green mussel"	2004							Asia	Philippines	"Bacoor, Cavite"	14.452118	14.475175	120.925641	120.970036		"Whole soft tissue"	1																																						"Pooled; Highly urbanized area"	2017/9/29	2017/9/29
PRA000043	SAA002474	ST009	73031			Silang	"Perna viridis"	"Asian green mussel"	2004							Asia	Philippines	Silang	14.133472	14.283696	120.922333	121.055233		"Whole soft tissue"	0.76																																						"Pooled; Rural area"	2017/9/29	2017/9/29
PRA000043	SAA002475	ST009	73031			"Hai Phong"	"Perna viridis"	"Asian green mussel"	2004							Asia	Vietnam	"Hai Phong"	20.814166	20.875376	106.637402	106.759742		"Whole soft tissue"	0.47				"60 - 75"	mm	"Shell length"																																"n=103 Pooled; Harbor"	2017/9/29	2017/9/29
PRA000043	SAA002476	ST009	73031			"Hue "	"Perna viridis"	"Asian green mussel"	2004							Asia	Vietnam	"Hue "	16.209137	16.73985	107.392383	108.187518		"Whole soft tissue"	1.3				"75 - 110"	mm	"Shell length"																																"n=18 Pooled; Shrimp farming"	2017/9/29	2017/9/29
PRA000043	SAA002477	ST009	73031			"Nha Trang"	"Perna viridis"	"Asian green mussel"	2004							Asia	Vietnam	"Nha Trang"	12.143691	12.374175	109.196031	109.33564		"Whole soft tissue"	0.88				"85 - 95"	mm	"Shell length"																																"n=44 Pooled; Shrimp farming"	2017/9/29	2017/9/29
PRA000043	SAA002478	ST009	73031			"Quang Binh"	"Perna viridis"	"Asian green mussel"	2004							Asia	Vietnam	"Quang Binh"	17.166083	17.952169	106.445203	106.98831		"Whole soft tissue"	1.3				"45 - 90"	mm	"Shell length"																																"Pooled; Urban area"	2017/9/29	2017/9/29
PRA000043	SAA002479	ST009	73031			"Thanh Hoa"	"Perna viridis"	"Asian green mussel"	2004							Asia	Vietnam	"Thanh Hoa"	19.296326	19.966096	105.786765	106.021406		"Whole soft tissue"	0.69				"35 - 80"	mm	"Shell length"																																"n=123 Pooled; Beach and tourist area"	2017/9/29	2017/9/29
